Time;durP1;ratioP1;P1;durP2;ratioP2;P2;SDS_P1;SDS_P2;PMS_P1;PMS_P2;Temp;Humidity;BMP_temperature;BMP_pressure;BME280_temperature;BME280_humidity;BME280_pressure;Samples;Min_cycle;Max_cycle;Signal;HPM_P1;HPM_P2
2021/06/05 00:01:04;;;;;;;;;0.00;0.00;;;;;19.04;59.73;101720.25;5104172;27;45429;-59
2021/06/05 00:03:31;;;;;;;;;0.00;0.00;;;;;19.02;59.61;101725.72;5107896;27;45535;-59
2021/06/05 00:05:59;;;;;;;;;0.00;0.00;;;;;18.96;59.82;101731.66;5103471;27;45301;-59
2021/06/05 00:08:27;;;;;;;;;0.00;0.00;;;;;18.94;59.38;101732.78;5102607;27;45242;-58
2021/06/05 00:10:56;;;;;;;;;0.00;0.00;;;;;18.98;59.44;101739.47;5102633;27;45512;-59
2021/06/05 00:13:33;;;;;;;;;0.00;0.00;;;;;18.98;59.61;101735.00;5102253;27;46216;-58
2021/06/05 00:15:59;;;;;;;;;0.00;0.00;;;;;19.00;60.04;101743.66;5110241;27;45534;-59
2021/06/05 00:18:25;;;;;;;;;0.00;0.00;;;;;19.06;59.65;101744.91;5122775;27;45203;-59
2021/06/05 00:20:51;;;;;;;;;0.00;0.00;;;;;19.06;59.61;101734.25;5123014;27;45415;-58
2021/06/05 00:23:19;;;;;;;;;0.00;0.00;;;;;19.05;59.53;101735.25;5103962;27;47127;-59
2021/06/05 00:25:45;;;;;;;;;0.00;0.00;;;;;19.02;59.35;101724.88;5122791;27;45332;-58
2021/06/05 00:28:12;;;;;;;;;0.00;0.00;;;;;19.04;59.54;101730.91;5122303;27;45345;-58
2021/06/05 00:30:38;;;;;;;;;0.00;0.00;;;;;19.02;59.79;101731.03;5123035;27;45284;-59
2021/06/05 00:33:05;;;;;;;;;0.00;0.00;;;;;19.01;59.92;101725.88;5122061;27;45597;-59
2021/06/05 00:35:32;;;;;;;;;0.00;0.00;;;;;18.97;59.96;101728.00;5104077;27;45402;-58
2021/06/05 00:37:57;;;;;;;;;0.00;0.00;;;;;18.96;59.60;101739.66;5122607;27;45273;-59
2021/06/05 00:40:27;;;;;;;;;0.00;0.00;;;;;18.95;60.28;101727.31;5123058;27;45508;-59
2021/06/05 00:42:54;;;;;;;;;0.00;0.00;;;;;18.99;59.70;101730.53;5122160;27;46047;-59
2021/06/05 00:45:22;;;;;;;;;0.00;0.00;;;;;18.99;59.85;101728.69;5122374;27;45440;-59
2021/06/05 00:47:48;;;;;;;;;0.00;0.00;;;;;18.99;59.90;101725.19;5122404;27;45340;-58
2021/06/05 00:50:15;;;;;;;;;0.00;0.00;;;;;18.98;60.09;101719.00;5122426;27;45622;-59
2021/06/05 00:52:44;;;;;;;;;0.00;0.00;;;;;19.01;59.82;101729.38;5122306;27;45560;-58
2021/06/05 00:55:14;;;;;;;;;0.00;0.00;;;;;19.04;60.22;101734.38;5122692;27;45245;-58
2021/06/05 00:57:40;;;;;;;;;0.00;0.00;;;;;19.05;60.08;101727.25;5122193;27;45386;-58
2021/06/05 01:00:34;;;;;;;;;0.00;0.00;;;;;19.04;60.08;101726.41;5111295;27;45449;-59
2021/06/05 01:03:01;;;;;;;;;0.00;0.00;;;;;19.04;59.73;101721.06;5110087;27;46545;-59
2021/06/05 01:05:29;;;;;;;;;0.00;0.00;;;;;19.04;60.05;101721.06;5106715;27;45430;-58
2021/06/05 01:08:03;;;;;;;;;0.00;0.00;;;;;18.97;59.87;101720.00;5110817;27;45205;-58
2021/06/05 01:10:33;;;;;;;;;0.00;0.00;;;;;18.89;60.42;101717.25;5122663;27;45263;-58
2021/06/05 01:13:23;;;;;;;;;0.00;0.00;;;;;18.90;60.04;101712.75;5122130;27;45495;-59
2021/06/05 01:15:56;;;;;;;;;0.00;0.00;;;;;18.88;60.42;101715.59;5122514;27;45228;-59
2021/06/05 01:18:30;;;;;;;;;0.00;0.00;;;;;18.87;60.70;101724.56;5121477;27;45372;-59
2021/06/05 01:21:04;;;;;;;;;0.00;0.00;;;;;18.87;60.85;101718.41;5103631;27;45482;-59
2021/06/05 01:23:51;;;;;;;;;0.00;0.00;;;;;18.90;60.65;101707.44;5121708;27;45774;-58
2021/06/05 01:26:26;;;;;;;;;0.00;0.00;;;;;18.87;60.22;101705.09;5122118;27;45461;-59
2021/06/05 01:28:57;;;;;;;;;0.00;0.00;;;;;18.89;60.56;101705.78;5121997;27;45369;-58
2021/06/05 01:31:29;;;;;;;;;0.00;0.00;;;;;18.91;59.98;101709.13;5121959;27;45471;-59
2021/06/05 01:33:55;;;;;;;;;0.00;0.00;;;;;18.93;60.22;101707.16;5121895;27;45522;-58
2021/06/05 01:36:22;;;;;;;;;0.00;0.00;;;;;18.93;60.62;101710.66;5121712;27;45262;-58
2021/06/05 01:38:52;;;;;;;;;0.00;0.00;;;;;18.95;60.71;101713.16;5122058;27;45350;-59
2021/06/05 01:41:19;;;;;;;;;0.00;0.00;;;;;18.93;60.22;101712.47;5122094;27;45716;-58
2021/06/05 01:43:47;;;;;;;;;0.00;0.00;;;;;18.88;60.72;101714.75;5121682;27;46127;-58
2021/06/05 01:46:15;;;;;;;;;0.00;0.00;;;;;18.81;60.35;101723.34;5121700;27;45361;-58
2021/06/05 01:48:41;;;;;;;;;0.00;0.00;;;;;18.73;61.04;101720.56;5121894;27;45285;-58
2021/06/05 01:51:09;;;;;;;;;0.00;0.00;;;;;18.64;61.35;101722.28;5121721;27;45666;-58
2021/06/05 01:53:40;;;;;;;;;0.00;0.00;;;;;18.59;61.59;101729.03;5121752;27;46205;-59
2021/06/05 01:56:06;;;;;;;;;0.00;0.00;;;;;18.57;61.24;101721.19;5121664;27;45363;-58
2021/06/05 01:58:33;;;;;;;;;0.00;0.00;;;;;18.59;61.32;101715.72;5124496;27;45313;-58
2021/06/05 02:01:01;;;;;;;;;0.00;0.00;;;;;18.60;61.35;101720.91;5106569;27;45464;-58
2021/06/05 02:03:27;;;;;;;;;0.00;0.00;;;;;18.62;61.18;101715.44;5116663;27;45337;-58
2021/06/05 02:05:53;;;;;;;;;0.00;0.00;;;;;18.61;61.59;101711.09;5105704;27;45460;-58
2021/06/05 02:08:25;;;;;;;;;0.00;0.00;;;;;18.56;61.71;101702.72;5117409;27;45335;-58
2021/06/05 02:10:55;;;;;;;;;0.00;0.00;;;;;18.54;61.46;101694.88;5125136;27;45238;-59
2021/06/05 02:13:33;;;;;;;;;0.00;0.00;;;;;18.54;61.51;101689.56;5124623;27;45645;-59
2021/06/05 02:16:06;;;;;;;;;0.00;0.00;;;;;18.53;61.74;101684.38;5125064;27;45293;-59
2021/06/05 02:18:34;;;;;;;;;0.00;0.00;;;;;18.45;61.79;101698.44;5124680;27;45333;-59
2021/06/05 02:21:05;;;;;;;;;0.00;0.00;;;;;18.44;61.83;101704.72;5103192;27;45246;-59
2021/06/05 02:23:51;;;;;;;;;0.00;0.00;;;;;18.45;61.75;101703.75;5122348;27;47609;-59
2021/06/05 02:26:20;;;;;;;;;0.00;0.00;;;;;18.43;61.94;101703.88;5124896;27;45352;-57
2021/06/05 02:28:51;;;;;;;;;0.00;0.00;;;;;18.42;61.81;101704.88;5124892;27;45238;-58
2021/06/05 02:31:17;;;;;;;;;0.00;0.00;;;;;18.41;62.44;101697.06;5124960;27;45391;-57
2021/06/05 02:33:43;;;;;;;;;0.00;0.00;;;;;18.40;62.18;101695.34;5124415;27;45451;-58
2021/06/05 02:36:12;;;;;;;;;0.00;0.00;;;;;18.37;61.94;101700.97;5124614;27;45466;-58
2021/06/05 02:38:40;;;;;;;;;0.00;0.00;;;;;18.32;62.12;101695.28;5124827;27;45363;-58
2021/06/05 02:41:08;;;;;;;;;0.00;0.00;;;;;18.29;62.14;101703.53;5124880;27;45337;-59
2021/06/05 02:43:35;;;;;;;;;0.00;0.00;;;;;18.24;61.90;101706.63;5124255;27;45693;-59
2021/06/05 02:46:06;;;;;;;;;0.00;0.00;;;;;18.22;62.45;101697.97;5124511;27;45277;-58
2021/06/05 02:48:51;;;;;;;;;0.00;0.00;;;;;18.23;62.08;101697.81;5124369;27;45281;-59
2021/06/05 02:51:20;;;;;;;;;0.00;0.00;;;;;18.22;62.31;101698.78;5124575;27;45444;-59
2021/06/05 02:53:45;;;;;;;;;0.00;0.00;;;;;18.16;62.25;101704.72;5124294;27;47040;-59
2021/06/05 02:56:11;;;;;;;;;0.00;0.00;;;;;18.13;62.61;101696.19;5124221;27;45239;-58
2021/06/05 02:58:38;;;;;;;;;0.00;0.00;;;;;18.11;62.21;101685.69;5124257;27;45283;-59
2021/06/05 03:01:05;;;;;;;;;0.00;0.00;;;;;18.11;62.80;101691.00;5104912;27;45357;-59
2021/06/05 03:03:31;;;;;;;;;0.00;0.00;;;;;18.10;62.39;101701.78;5116222;27;46918;-58
2021/06/05 03:05:57;;;;;;;;;0.00;0.00;;;;;18.08;62.76;101696.63;5104101;27;45435;-59
2021/06/05 03:08:26;;;;;;;;;0.00;0.00;;;;;18.01;62.87;101695.50;5103728;27;45415;-58
2021/06/05 03:10:52;;;;;;;;;0.00;0.00;;;;;17.99;63.08;101697.47;5123851;27;45430;-59
2021/06/05 03:13:19;;;;;;;;;0.00;0.00;;;;;17.97;62.68;101694.13;5123960;27;45278;-59
2021/06/05 03:15:45;;;;;;;;;0.00;0.00;;;;;17.99;62.96;101703.66;5124080;27;45418;-60
2021/06/05 03:18:12;;;;;;;;;0.00;0.00;;;;;17.99;62.68;101700.13;5123946;27;45267;-60
2021/06/05 03:20:40;;;;;;;;;0.00;0.00;;;;;18.01;62.79;101703.47;5124247;27;45191;-58
2021/06/05 03:23:08;;;;;;;;;0.00;0.00;;;;;18.00;62.44;101705.31;5123922;27;46350;-58
2021/06/05 03:25:33;;;;;;;;;0.00;0.00;;;;;18.00;62.14;101701.81;5124142;27;45380;-59
2021/06/05 03:27:59;;;;;;;;;0.00;0.00;;;;;18.00;62.44;101696.50;5123973;27;45274;-59
2021/06/05 03:30:26;;;;;;;;;0.00;0.00;;;;;17.96;62.32;101708.41;5124343;27;45318;-59
2021/06/05 03:32:52;;;;;;;;;0.00;0.00;;;;;17.96;62.15;101700.44;5123297;27;47575;-58
2021/06/05 03:35:18;;;;;;;;;0.00;0.00;;;;;17.97;62.13;101707.41;5123656;27;45377;-58
2021/06/05 03:37:43;;;;;;;;;0.00;0.00;;;;;17.93;62.72;101690.09;5123786;27;45272;-59
2021/06/05 03:40:12;;;;;;;;;0.00;0.00;;;;;17.86;62.29;101695.16;5124160;27;45204;-58
2021/06/05 03:42:37;;;;;;;;;0.00;0.00;;;;;17.83;62.68;101701.56;5123347;27;45273;-59
2021/06/05 03:45:05;;;;;;;;;0.00;0.00;;;;;17.80;62.72;101699.19;5123847;27;45351;-58
2021/06/05 03:47:31;;;;;;;;;0.00;0.00;;;;;17.74;62.58;101693.59;5123536;27;45296;-58
2021/06/05 03:49:56;;;;;;;;;0.00;0.00;;;;;17.72;62.64;101692.91;5123802;27;45312;-58
2021/06/05 03:52:25;;;;;;;;;0.00;0.00;;;;;17.71;62.56;101689.41;5123152;27;45606;-58
2021/06/05 03:54:52;;;;;;;;;0.00;0.00;;;;;17.71;63.05;101700.03;5123686;27;45163;-59
2021/06/05 03:57:20;;;;;;;;;0.00;0.00;;;;;17.70;62.79;101692.19;5123211;27;45260;-58
2021/06/05 03:59:46;;;;;;;;;0.00;0.00;;;;;17.72;62.72;101693.72;5115291;27;45313;-58
2021/06/05 04:02:11;;;;;;;;;0.00;0.00;;;;;17.72;62.39;101700.88;5118002;27;45272;-58
2021/06/05 04:04:37;;;;;;;;;0.00;0.00;;;;;17.73;62.84;101695.44;5114421;27;45246;-59
2021/06/05 04:07:08;;;;;;;;;0.00;0.00;;;;;17.73;62.57;101700.75;5102895;27;45345;-58
2021/06/05 04:09:34;;;;;;;;;0.00;0.00;;;;;17.70;62.70;101700.19;5102934;27;46202;-58
2021/06/05 04:11:59;;;;;;;;;0.00;0.00;;;;;17.59;63.10;101699.34;5102120;27;46726;-59
2021/06/05 04:14:25;;;;;;;;;0.00;0.00;;;;;17.60;63.16;101709.00;5083855;27;45488;-59
2021/06/05 04:16:50;;;;;;;;;0.00;0.00;;;;;17.63;62.80;101711.38;5118502;27;45587;-59
2021/06/05 04:19:15;;;;;;;;;0.00;0.00;;;;;17.67;62.30;101711.06;5123216;27;45422;-59
2021/06/05 04:21:40;;;;;;;;;0.00;0.00;;;;;17.64;62.73;101704.22;5122499;27;45411;-59
2021/06/05 04:24:06;;;;;;;;;0.00;0.00;;;;;17.64;62.53;101712.19;5122960;27;45310;-59
2021/06/05 04:26:32;;;;;;;;;0.00;0.00;;;;;17.60;62.84;101709.00;5123180;27;45320;-59
2021/06/05 04:28:57;;;;;;;;;0.00;0.00;;;;;17.61;63.12;101715.97;5123191;27;45592;-59
2021/06/05 04:31:22;;;;;;;;;0.00;0.00;;;;;17.63;63.20;101724.66;5122541;27;45565;-59
2021/06/05 04:33:48;;;;;;;;;0.00;0.00;;;;;17.68;62.82;101723.38;5122615;27;45325;-60
2021/06/05 04:36:15;;;;;;;;;0.00;0.00;;;;;17.69;62.68;101720.59;5122888;27;45264;-59
2021/06/05 04:38:42;;;;;;;;;0.00;0.00;;;;;17.69;62.70;101722.38;5123409;27;45238;-59
2021/06/05 04:41:09;;;;;;;;;0.00;0.00;;;;;17.73;63.00;101716.69;5122374;27;46212;-58
2021/06/05 04:43:35;;;;;;;;;0.00;0.00;;;;;17.77;62.57;101717.22;5122365;27;45276;-59
2021/06/05 04:46:00;;;;;;;;;0.00;0.00;;;;;17.76;62.52;101718.22;5122620;27;45322;-59
2021/06/05 04:48:27;;;;;;;;;0.00;0.00;;;;;17.77;62.04;101727.84;5122797;27;45372;-59
2021/06/05 04:50:53;;;;;;;;;0.00;0.00;;;;;17.80;61.99;101731.06;5104010;27;46115;-58
2021/06/05 04:53:19;;;;;;;;;0.00;0.00;;;;;17.81;62.16;101732.72;5122794;27;45309;-59
2021/06/05 04:55:45;;;;;;;;;0.00;0.00;;;;;17.82;62.05;101729.13;5122453;27;45266;-58
2021/06/05 04:58:11;;;;;;;;;0.00;0.00;;;;;17.77;62.12;101731.31;5122998;27;45439;-58
2021/06/05 05:00:42;;;;;;;;;0.00;0.00;;;;;17.80;62.18;101739.03;5106634;27;45323;-59
2021/06/05 05:03:10;;;;;;;;;0.00;0.00;;;;;17.85;61.68;101754.59;5085775;27;45385;-58
2021/06/05 05:05:36;;;;;;;;;0.00;0.00;;;;;17.88;61.71;101758.78;5106034;27;45470;-58
2021/06/05 05:08:03;;;;;;;;;0.00;0.00;;;;;17.92;61.73;101763.66;5102134;27;45250;-58
2021/06/05 05:10:32;;;;;;;;;0.00;0.00;;;;;17.93;61.66;101768.00;5101324;27;46247;-59
2021/06/05 05:12:59;;;;;;;;;0.00;0.00;;;;;17.92;61.66;101763.66;5101675;27;45187;-59
2021/06/05 05:15:24;;;;;;;;;0.00;0.00;;;;;17.92;61.43;101766.31;5101720;27;45606;-60
2021/06/05 05:17:50;;;;;;;;;0.00;0.00;;;;;17.86;61.32;101772.22;5111111;27;45312;-59
2021/06/05 05:20:19;;;;;;;;;0.00;0.00;;;;;17.82;60.98;101773.47;5121576;27;45343;-59
2021/06/05 05:22:45;;;;;;;;;0.00;0.00;;;;;17.75;61.54;101778.50;5121839;27;45422;-59
2021/06/05 05:25:11;;;;;;;;;0.00;0.00;;;;;17.74;61.25;101781.28;5122095;27;45341;-59
2021/06/05 05:27:37;;;;;;;;;0.00;0.00;;;;;17.75;61.75;101791.78;5121862;27;45315;-59
2021/06/05 05:30:05;;;;;;;;;0.00;0.00;;;;;17.73;61.64;101788.41;5121871;27;45656;-59
2021/06/05 05:32:31;;;;;;;;;0.00;0.00;;;;;17.72;61.92;101792.03;5123038;27;45171;-59
2021/06/05 05:34:56;;;;;;;;;0.00;0.00;;;;;17.74;61.91;101794.56;5125330;27;45784;-59
2021/06/05 05:37:21;;;;;;;;;0.00;0.00;;;;;17.75;61.31;101801.53;5125862;27;45237;-60
2021/06/05 05:39:47;;;;;;;;;0.00;0.00;;;;;17.79;61.44;101811.75;5125252;27;46207;-60
2021/06/05 05:42:12;;;;;;;;;0.00;0.00;;;;;17.80;61.10;101813.44;5125392;27;45282;-59
2021/06/05 05:44:37;;;;;;;;;0.00;0.00;;;;;17.82;61.38;101813.34;5125552;27;45217;-58
2021/06/05 05:47:03;;;;;;;;;0.00;0.00;;;;;17.79;61.15;101814.41;5124882;27;45371;-59
2021/06/05 05:49:28;;;;;;;;;0.00;0.00;;;;;17.77;61.23;101818.19;5124773;27;46400;-59
2021/06/05 05:51:54;;;;;;;;;0.00;0.00;;;;;17.74;61.17;101818.47;5124850;27;45254;-60
2021/06/05 05:54:19;;;;;;;;;0.00;0.00;;;;;17.76;61.06;101817.34;5125489;27;45354;-58
2021/06/05 05:56:45;;;;;;;;;0.00;0.00;;;;;17.72;61.39;101815.94;5125443;27;45577;-58
2021/06/05 05:59:15;;;;;;;;;0.00;0.00;;;;;17.80;61.44;101815.28;5121517;27;45393;-59
2021/06/05 06:01:40;;;;;;;;;0.00;0.00;;;;;17.84;60.88;101822.00;5114679;27;45246;-59
2021/06/05 06:04:05;;;;;;;;;0.00;0.00;;;;;17.88;61.34;101833.19;5121238;27;45345;-59
2021/06/05 06:06:31;;;;;;;;;0.00;0.00;;;;;17.89;61.31;101826.91;5115480;27;45199;-59
2021/06/05 06:08:57;;;;;;;;;0.00;0.00;;;;;17.90;61.54;101834.72;5124763;27;46346;-59
2021/06/05 06:11:22;;;;;;;;;0.00;0.00;;;;;17.95;60.88;101839.63;5124828;27;45238;-59
2021/06/05 06:13:48;;;;;;;;;0.00;0.00;;;;;17.91;61.11;101835.59;5124804;27;45403;-59
2021/06/05 06:16:16;;;;;;;;;0.00;0.00;;;;;17.87;61.22;101842.16;5125242;27;45293;-57
2021/06/05 06:18:42;;;;;;;;;0.00;0.00;;;;;17.86;61.22;101841.31;5124489;27;46231;-60
2021/06/05 06:21:10;;;;;;;;;0.00;0.00;;;;;17.86;61.17;101841.31;5124642;27;45424;-59
2021/06/05 06:23:40;;;;;;;;;0.00;0.00;;;;;17.86;61.11;101840.47;5124994;27;45242;-59
2021/06/05 06:26:12;;;;;;;;;0.00;0.00;;;;;17.86;61.17;101840.47;5124915;27;45304;-58
2021/06/05 06:28:39;;;;;;;;;0.00;0.00;;;;;17.88;60.95;101834.00;5124584;27;45465;-59
2021/06/05 06:31:07;;;;;;;;;0.00;0.00;;;;;17.96;60.86;101836.81;5124511;27;45254;-59
2021/06/05 06:33:33;;;;;;;;;0.00;0.00;;;;;18.02;60.80;101846.06;5124381;27;45687;-59
2021/06/05 06:35:59;;;;;;;;;0.00;0.00;;;;;18.04;60.26;101838.78;5124380;27;45276;-59
2021/06/05 06:38:28;;;;;;;;;0.00;0.00;;;;;18.11;60.75;101845.19;5124333;27;46361;-60
2021/06/05 06:40:54;;;;;;;;;0.00;0.00;;;;;18.16;60.31;101850.97;5124032;27;45402;-59
2021/06/05 06:43:23;;;;;;;;;0.00;0.00;;;;;18.18;60.41;101856.94;5105297;27;45336;-58
2021/06/05 06:45:49;;;;;;;;;0.00;0.00;;;;;18.23;59.84;101856.53;5124207;27;45526;-58
2021/06/05 06:48:15;;;;;;;;;0.00;0.00;;;;;18.33;59.87;101856.50;5123319;27;47099;-59
2021/06/05 06:50:41;;;;;;;;;0.00;0.00;;;;;18.37;60.00;101863.22;5123381;27;45244;-59
2021/06/05 06:53:06;;;;;;;;;0.00;0.00;;;;;18.43;59.38;101866.16;5124058;27;45203;-59
2021/06/05 06:55:31;;;;;;;;;0.00;0.00;;;;;18.52;59.37;101866.28;5105701;27;45579;-59
2021/06/05 06:57:58;;;;;;;;;0.00;0.00;;;;;18.61;58.76;101866.25;5123778;27;45793;-59
2021/06/05 07:00:30;;;;;;;;;0.00;0.00;;;;;18.69;58.65;101860.22;5109775;27;45250;-59
2021/06/05 07:02:55;;;;;;;;;0.00;0.00;;;;;18.75;58.83;101864.13;5103835;27;45443;-59
2021/06/05 07:05:21;;;;;;;;;0.00;0.00;;;;;18.81;58.74;101869.72;5109107;27;45224;-58
2021/06/05 07:07:46;;;;;;;;;0.00;0.00;;;;;18.85;57.97;101872.94;5102943;27;46097;-59
2021/06/05 07:10:14;;;;;;;;;0.00;0.00;;;;;18.86;58.51;101879.94;5117016;27;45376;-60
2021/06/05 07:12:40;;;;;;;;;0.00;0.00;;;;;18.90;58.45;101875.16;5123822;27;45328;-60
2021/06/05 07:15:06;;;;;;;;;0.00;0.00;;;;;18.96;58.26;101874.56;5123336;27;45348;-60
2021/06/05 07:17:32;;;;;;;;;0.00;0.00;;;;;19.03;57.41;101873.00;5122956;27;47237;-59
2021/06/05 07:19:58;;;;;;;;;0.00;0.00;;;;;19.04;57.80;101854.22;5104622;27;45318;-60
2021/06/05 07:22:24;;;;;;;;;0.00;0.00;;;;;19.15;57.38;101865.66;5123287;27;45281;-60
2021/06/05 07:24:49;;;;;;;;;0.00;0.00;;;;;19.27;57.06;101864.47;5123126;27;45599;-58
2021/06/05 07:27:14;;;;;;;;;0.00;0.00;;;;;19.42;57.25;101870.16;5123299;27;45373;-58
2021/06/05 07:29:40;;;;;;;;;0.00;0.00;;;;;19.55;56.64;101875.13;5123080;27;45366;-59
2021/06/05 07:32:06;;;;;;;;;0.00;0.00;;;;;19.67;56.53;101871.22;5122611;27;45270;-59
2021/06/05 07:34:35;;;;;;;;;0.00;0.00;;;;;19.79;56.30;101869.22;5123461;27;45333;-59
2021/06/05 07:37:07;;;;;;;;;0.00;0.00;;;;;19.88;55.90;101869.13;5123482;27;46279;-59
2021/06/05 07:39:34;;;;;;;;;0.00;0.00;;;;;19.96;55.88;101871.03;5123046;27;45252;-60
2021/06/05 07:42:00;;;;;;;;;0.00;0.00;;;;;20.09;55.50;101870.66;5123331;27;45301;-59
2021/06/05 07:44:26;;;;;;;;;0.00;0.00;;;;;20.18;55.25;101877.72;5123097;27;45570;-60
2021/06/05 07:46:57;;;;;;;;;0.00;0.00;;;;;20.23;55.13;101869.25;5123040;27;46450;-59
2021/06/05 07:49:33;;;;;;;;;0.75;0.75;;;;;20.38;55.02;101869.53;5122900;27;45281;-59
2021/06/05 07:52:00;;;;;;;;;0.00;0.00;;;;;20.56;54.53;101873.00;5122603;27;45288;-59
2021/06/05 07:54:25;;;;;;;;;0.00;0.00;;;;;20.75;54.25;101869.28;5122120;27;45480;-59
2021/06/05 07:56:51;;;;;;;;;0.00;0.00;;;;;20.89;53.91;101871.38;5122230;27;45394;-59
2021/06/05 07:59:19;;;;;;;;;0.00;0.00;;;;;20.99;53.44;101873.94;5117732;27;45238;-59
2021/06/05 08:01:45;;;;;;;;;0.00;0.00;;;;;21.04;53.30;101874.28;5101890;27;45180;-59
2021/06/05 08:04:10;;;;;;;;;0.00;0.00;;;;;21.05;53.25;101877.78;5115762;27;45416;-59
2021/06/05 08:06:36;;;;;;;;;0.00;0.00;;;;;21.02;51.91;101876.28;5102016;27;46063;-59
2021/06/05 08:09:01;;;;;;;;;0.00;0.00;;;;;20.96;52.97;101881.44;5120348;27;45418;-59
2021/06/05 08:11:27;;;;;;;;;0.00;0.00;;;;;20.96;52.83;101878.75;5122660;27;45712;-59
2021/06/05 08:13:52;;;;;;;;;0.00;0.00;;;;;20.98;52.76;101874.91;5122668;27;45401;-59
2021/06/05 08:16:17;;;;;;;;;0.00;0.00;;;;;21.02;52.76;101883.47;5122168;27;47698;-59
2021/06/05 08:18:43;;;;;;;;;0.00;0.00;;;;;21.00;52.70;101877.44;5122220;27;45416;-59
2021/06/05 08:21:12;;;;;;;;;0.00;0.00;;;;;20.88;52.00;101888.41;5122575;27;45324;-60
2021/06/05 08:23:39;;;;;;;;;0.00;0.00;;;;;20.83;52.79;101880.03;5122231;27;45405;-59
2021/06/05 08:26:07;;;;;;;;;0.00;0.00;;;;;20.93;52.79;101890.59;5122426;27;46676;-58
2021/06/05 08:28:33;;;;;;;;;0.00;0.00;;;;;21.04;52.24;101892.16;5122000;27;45266;-59
2021/06/05 08:31:03;;;;;;;;;0.00;0.00;;;;;21.07;51.92;101889.97;5121817;27;45416;-59
2021/06/05 08:33:29;;;;;;;;;0.00;0.00;;;;;21.14;52.02;101897.34;5121963;27;45156;-59
2021/06/05 08:35:55;;;;;;;;;0.00;0.00;;;;;21.19;51.85;101895.88;5121856;27;46981;-58
2021/06/05 08:38:23;;;;;;;;;0.00;0.00;;;;;21.26;51.89;101896.09;5121526;27;45235;-59
2021/06/05 08:41:11;;;;;;;;;0.00;0.00;;;;;21.34;51.45;101885.44;5122047;27;45312;-59
2021/06/05 08:43:59;;;;;;;;;0.00;0.00;;;;;21.43;51.03;101881.81;5121114;27;46081;-59
2021/06/05 08:46:29;;;;;;;;;0.00;0.00;;;;;21.29;51.18;101882.38;5121173;27;46230;-59
2021/06/05 08:48:58;;;;;;;;;0.00;0.00;;;;;21.20;50.95;101872.69;5121617;27;45462;-59
2021/06/05 08:51:37;;;;;;;;;0.00;0.00;;;;;21.53;51.44;101875.47;5121910;27;45251;-59
2021/06/05 08:54:18;;;;;;;;;0.00;0.00;;;;;22.20;50.52;101884.25;5121822;27;45237;-59
2021/06/05 08:56:45;;;;;;;;;0.00;0.00;;;;;22.63;49.58;101876.00;5121867;27;47236;-59
2021/06/05 08:59:18;;;;;;;;;0.00;0.00;;;;;23.09;48.88;101877.06;5118446;27;45291;-59
2021/06/05 09:01:45;;;;;;;;;0.00;0.00;;;;;23.49;48.34;101868.97;5094058;27;45310;-60
2021/06/05 09:04:17;;;;;;;;;0.00;0.00;;;;;24.58;47.84;101872.34;5115869;27;45369;-60
2021/06/05 09:06:50;;;;;;;;;0.00;0.00;;;;;25.60;44.61;101870.75;5114803;27;47558;-60
2021/06/05 09:09:20;;;;;;;;;0.00;0.00;;;;;26.53;43.89;101876.94;5124657;27;45400;-60
2021/06/05 09:11:45;;;;;;;;;0.00;0.00;;;;;26.74;40.45;101878.75;5124943;27;45277;-60
2021/06/05 09:14:11;;;;;;;;;0.00;0.00;;;;;26.83;41.82;101874.84;5125159;27;45244;-60
2021/06/05 09:16:47;;;;;;;;;0.00;0.00;;;;;28.26;42.03;101882.06;5124375;27;45497;-60
2021/06/05 09:19:12;;;;;;;;;0.00;0.00;;;;;29.54;39.43;101885.00;5125162;27;45321;-60
2021/06/05 09:22:07;;;;;;;;;0.00;0.00;;;;;29.03;38.58;101881.28;5125117;27;45176;-60
2021/06/05 09:24:34;;;;;;;;;0.00;0.00;;;;;28.48;38.31;101885.38;5124944;27;45201;-60
2021/06/05 09:27:17;;;;;;;;;0.00;0.00;;;;;27.52;38.41;101895.47;5124269;27;46158;-60
2021/06/05 09:29:47;;;;;;;;;0.00;0.00;;;;;26.55;40.01;101896.41;5124510;27;45299;-59
2021/06/05 09:32:16;;;;;;;;;0.00;0.00;;;;;26.01;40.96;101895.19;5124241;27;45376;-59
2021/06/05 09:34:45;;;;;;;;;0.00;0.00;;;;;25.54;41.38;101897.34;5124811;27;45500;-59
2021/06/05 09:37:32;;;;;;;;;0.00;0.00;;;;;25.25;42.29;101900.97;5124554;27;45517;-59
2021/06/05 09:40:25;;;;;;;;;0.00;0.00;;;;;24.98;42.19;101894.38;5123979;27;45339;-60
2021/06/05 09:43:17;;;;;;;;;0.00;0.00;;;;;24.85;43.23;101888.81;5111736;27;45460;-61
2021/06/05 09:45:45;;;;;;;;;0.00;0.00;;;;;24.87;43.07;101890.31;5124715;27;45184;-61
2021/06/05 09:48:21;;;;;;;;;0.00;0.00;;;;;25.05;42.90;101900.66;5124031;27;47581;-60
2021/06/05 09:50:49;;;;;;;;;0.00;0.00;;;;;25.42;42.84;101900.72;5124166;27;45333;-61
2021/06/05 09:53:27;;;;;;;;;0.00;0.00;;;;;25.84;41.16;101891.88;5124582;27;45283;-60
2021/06/05 09:55:52;;;;;;;;;0.00;0.00;;;;;25.93;40.83;101893.44;5124288;27;45218;-60
2021/06/05 09:59:12;;;;;;;;;0.00;0.00;;;;;26.08;40.99;101900.63;5124290;27;46906;-60
2021/06/05 10:01:37;;;;;;;;;0.00;0.00;;;;;25.85;40.62;101895.38;5070278;28;45270;-59
2021/06/05 10:04:08;;;;;;;;;0.00;0.00;;;;;25.63;41.19;101895.38;5109145;27;45235;-59
2021/06/05 10:06:57;;;;;;;;;0.00;0.00;;;;;25.47;41.47;101896.47;5103497;27;45427;-60
2021/06/05 10:09:25;;;;;;;;;0.00;0.00;;;;;25.27;41.10;101895.38;5110820;27;45637;-60
2021/06/05 10:12:22;;;;;;;;;0.00;0.00;;;;;25.18;42.24;101908.06;5123969;27;45232;-60
2021/06/05 10:15:11;;;;;;;;;0.00;0.00;;;;;25.50;41.18;101887.16;5113714;27;45348;-60
2021/06/05 10:17:40;;;;;;;;;0.00;0.00;;;;;26.17;40.73;101902.13;5123414;27;45417;-60
2021/06/05 10:20:45;;;;;;;;;0.00;0.00;;;;;26.34;40.70;101900.00;5123598;27;45371;-61
2021/06/05 10:23:14;;;;;;;;;0.00;0.00;;;;;26.18;40.83;101899.25;5018939;28;45197;-61
2021/06/05 10:25:48;;;;;;;;;0.00;0.00;;;;;26.01;40.52;101897.88;5020314;28;45395;-61
2021/06/05 10:28:22;;;;;;;;;0.00;0.00;;;;;25.66;40.91;101903.09;5075566;27;45546;-59
2021/06/05 10:31:05;;;;;;;;;0.00;0.00;;;;;25.33;41.03;101900.00;5121969;27;46322;-60
2021/06/05 10:33:33;;;;;;;;;0.00;0.00;;;;;25.05;41.32;101905.22;5122671;27;45312;-60
2021/06/05 10:36:01;;;;;;;;;0.00;0.00;;;;;24.86;42.06;101901.22;5123277;27;45428;-60
2021/06/05 10:38:55;;;;;;;;;0.00;0.00;;;;;24.54;42.33;101901.41;5123020;27;45482;-61
2021/06/05 10:41:24;;;;;;;;;0.00;0.00;;;;;24.31;42.15;101898.72;5122978;27;46207;-59
2021/06/05 10:43:50;;;;;;;;;0.00;0.00;;;;;24.32;42.71;101900.41;5122916;27;45284;-60
2021/06/05 10:46:52;;;;;;;;;0.00;0.00;;;;;24.53;42.94;101902.41;5122462;27;45477;-61
2021/06/05 10:49:41;;;;;;;;;0.00;0.00;;;;;24.54;41.84;101901.41;5123162;27;45601;-60
2021/06/05 10:52:27;;;;;;;;;0.00;0.00;;;;;24.24;42.36;101897.78;5122832;27;46343;-60
2021/06/05 10:54:59;;;;;;;;;0.00;0.00;;;;;24.21;42.61;101895.50;5122549;27;45357;-60
2021/06/05 10:57:24;;;;;;;;;0.00;0.00;;;;;24.26;43.15;101900.31;5122696;27;45444;-60
2021/06/05 10:59:55;;;;;;;;;0.00;0.00;;;;;24.20;42.92;101895.66;5113892;27;45237;-61
2021/06/05 11:02:38;;;;;;;;;0.00;0.00;;;;;24.02;43.09;101899.50;5102494;27;46527;-59
2021/06/05 11:05:32;;;;;;;;;0.00;0.00;;;;;23.91;43.46;101898.06;5108928;27;45302;-60
2021/06/05 11:08:10;;;;;;;;;0.00;0.00;;;;;23.89;43.61;101893.91;5102186;27;45273;-61
2021/06/05 11:10:47;;;;;;;;;0.00;0.00;;;;;23.78;44.36;101896.97;5102009;27;45343;-62
2021/06/05 11:13:36;;;;;;;;;0.00;0.00;;;;;23.66;44.32;101896.53;5101668;27;46488;-61
2021/06/05 11:16:03;;;;;;;;;0.00;0.00;;;;;23.62;44.11;101898.72;5110629;27;45199;-59
2021/06/05 11:18:38;;;;;;;;;0.00;0.00;;;;;23.84;44.48;101902.47;5122862;27;45529;-60
2021/06/05 11:21:22;;;;;;;;;0.00;0.00;;;;;23.81;44.00;101894.78;5123090;27;45386;-61
2021/06/05 11:23:56;;;;;;;;;0.00;0.00;;;;;23.63;44.23;101900.41;5122600;27;45279;-60
2021/06/05 11:26:34;;;;;;;;;0.00;0.00;;;;;23.38;44.66;101896.19;5122781;27;45476;-60
2021/06/05 11:29:02;;;;;;;;;0.00;0.00;;;;;23.22;45.57;101903.31;5122692;27;45329;-60
2021/06/05 11:31:45;;;;;;;;;0.00;0.00;;;;;23.18;45.39;101899.31;5121190;27;45470;-60
2021/06/05 11:34:33;;;;;;;;;0.00;0.00;;;;;23.12;45.98;101900.00;5122190;27;45492;-60
2021/06/05 11:37:05;;;;;;;;;0.00;0.00;;;;;22.95;45.76;101901.88;5122562;27;45254;-60